Map

Track Data

SID SEASON NUMBER BASIN SUBBASIN NAME ISO_TIME NATURE LAT LON WMO_WIND WMO_PRES WMO_AGENCY TRACK_TYPE DIST2LAND LANDFALL IFLAG USA_AGENCY USA_ATCF_ID USA_LAT USA_LON USA_RECORD USA_STATUS USA_WIND USA_PRES USA_SSHS USA_R34_NE USA_R34_SE USA_R34_SW USA_R34_NW USA_R50_NE USA_R50_SE USA_R50_SW USA_R50_NW USA_R64_NE USA_R64_SE USA_R64_SW USA_R64_NW USA_POCI USA_ROCI USA_RMW USA_EYE TOKYO_LAT TOKYO_LON TOKYO_GRADE TOKYO_WIND TOKYO_PRES TOKYO_R50_DIR TOKYO_R50_LONG TOKYO_R50_SHORT TOKYO_R30_DIR TOKYO_R30_LONG TOKYO_R30_SHORT TOKYO_LAND CMA_LAT CMA_LON CMA_CAT CMA_WIND CMA_PRES HKO_LAT HKO_LON HKO_CAT HKO_WIND HKO_PRES NEWDELHI_LAT NEWDELHI_LON NEWDELHI_GRADE NEWDELHI_WIND NEWDELHI_PRES NEWDELHI_CI NEWDELHI_DP NEWDELHI_POCI REUNION_LAT REUNION_LON REUNION_TYPE REUNION_WIND REUNION_PRES REUNION_TNUM REUNION_CI REUNION_RMW REUNION_R34_NE REUNION_R34_SE REUNION_R34_SW REUNION_R34_NW REUNION_R50_NE REUNION_R50_SE REUNION_R50_SW REUNION_R50_NW REUNION_R64_NE REUNION_R64_SE REUNION_R64_SW REUNION_R64_NW BOM_LAT BOM_LON BOM_TYPE BOM_WIND BOM_PRES BOM_TNUM BOM_CI BOM_RMW BOM_R34_NE BOM_R34_SE BOM_R34_SW BOM_R34_NW BOM_R50_NE BOM_R50_SE BOM_R50_SW BOM_R50_NW BOM_R64_NE BOM_R64_SE BOM_R64_SW BOM_R64_NW BOM_ROCI BOM_POCI BOM_EYE BOM_POS_METHOD BOM_PRES_METHOD NADI_LAT NADI_LON NADI_CAT NADI_WIND NADI_PRES WELLINGTON_LAT WELLINGTON_LON WELLINGTON_WIND WELLINGTON_PRES DS824_LAT DS824_LON DS824_STAGE DS824_WIND DS824_PRES TD9636_LAT TD9636_LON TD9636_STAGE TD9636_WIND TD9636_PRES TD9635_LAT TD9635_LON TD9635_WIND TD9635_PRES TD9635_ROCI NEUMANN_LAT NEUMANN_LON NEUMANN_CLASS NEUMANN_WIND NEUMANN_PRES MLC_LAT MLC_LON MLC_CLASS MLC_WIND MLC_PRES USA_GUST BOM_GUST BOM_GUST_PER REUNION_GUST REUNION_GUST_PER USA_SEAHGT USA_SEARAD_NE USA_SEARAD_SE USA_SEARAD_SW USA_SEARAD_NW STORM_SPEED STORM_DIR
1922340N08091 1922 66 NI BB NOT_NAMED 1922-12-06 00:00:00 TS 8.10000 91.2000 main 523 523 _________O____ -1 8.10000 91.2000 TC 30 4 339
1922340N08091 1922 66 NI BB NOT_NAMED 1922-12-06 03:00:00 TS 8.27667 91.1334 main 544 544 _________PO___ -1 8.36501 91.1000 TC 30 8.10000 91.2000 1 4 339
1922340N08091 1922 66 NI BB NOT_NAMED 1922-12-06 06:00:00 TS 8.48438 91.0431 main 566 566 _________OP___ -1 8.60000 91.0000 TC 30 8.31095 91.1078 1 4 336
1922340N08091 1922 66 NI BB NOT_NAMED 1922-12-06 09:00:00 TS 8.67893 90.9482 main 588 588 _________PP___ -1 8.79250 90.9000 TC 30 8.52751 91.0125 1 4 335
1922340N08091 1922 66 NI BB NOT_NAMED 1922-12-06 12:00:00 TS 8.87766 90.8555 main 601 601 _________OP___ -1 9.00000 90.8000 TC 30 8.75531 90.9109 1 5 337
1922340N08091 1922 66 NI BB NOT_NAMED 1922-12-06 15:00:00 TS 9.14625 90.7538 main 624 624 _________PO___ -1 9.29249 90.7075 TC 31 9.00000 90.8000 1 6 339
1922340N08091 1922 66 NI BB NOT_NAMED 1922-12-06 18:00:00 TS 9.43235 90.6391 main 662 662 _________OP___ -1 9.60000 90.6000 TC 32 9.26469 90.6782 1 6 336
1922340N08091 1922 66 NI BB NOT_NAMED 1922-12-06 21:00:00 TS 9.70001 90.5000 main 692 692 _________PP___ -1 9.85751 90.4500 TC 33 9.54251 90.5500 1 6 333
1922340N08091 1922 66 NI BB NOT_NAMED 1922-12-07 00:00:00 TS 9.96204 90.3610 main 723 723 _________OP___ -1 10.1000 90.3000 TC 34 9.82407 90.4219 1 6 335
1922340N08091 1922 66 NI BB NOT_NAMED 1922-12-07 03:00:00 TS 10.2250 90.2462 main 754 747 _________PO___ -1 10.3500 90.1925 TC 41 10.1000 90.3000 2 6 337
1922340N08091 1922 66 NI BB NOT_NAMED 1922-12-07 06:00:00 TS 10.4806 90.1423 main 754 736 _________OP___ -1 10.6000 90.1000 TC 49 10.3612 90.1847 2 6 338
1922340N08091 1922 66 NI BB NOT_NAMED 1922-12-07 09:00:00 TS 10.7362 90.0350 main 743 725 _________PP___ -1 10.8575 89.9925 TC 56 10.6150 90.0775 2 5 338
1922340N08091 1922 66 NI BB NOT_NAMED 1922-12-07 12:00:00 TS 10.9806 89.9408 main 725 708 _________OP___ -1 11.1000 89.9000 TC 64 10.8612 89.9816 2 5 341
1922340N08091 1922 66 NI BB NOT_NAMED 1922-12-07 15:00:00 TS 11.2000 89.8712 main 708 699 _________PO___ -1 11.3000 89.8425 TC 64 11.1000 89.9000 4 5 344
1922340N08091 1922 66 NI BB NOT_NAMED 1922-12-07 18:00:00 TS 11.4181 89.8137 main 699 684 _________OP___ -1 11.5000 89.8000 TC 64 11.3362 89.8275 4 5 346
1922340N08091 1922 66 NI BB NOT_NAMED 1922-12-07 21:00:00 TS 11.6575 89.7562 main 676 668 _________PP___ -1 11.7500 89.7425 TC 64 11.5650 89.7700 4 5 349
1922340N08091 1922 66 NI BB NOT_NAMED 1922-12-08 00:00:00 TS 11.8931 89.7137 main 668 652 _________OP___ -1 12.0000 89.7000 TC 64 11.7862 89.7275 4 5 353
1922340N08091 1922 66 NI BB NOT_NAMED 1922-12-08 03:00:00 TS 12.1037 89.6962 main 652 638 _________PO___ -1 12.2075 89.6925 TC 64 12.0000 89.7000 4 4 357
1922340N08091 1922 66 NI BB NOT_NAMED 1922-12-08 06:00:00 TS 12.3036 89.6928 main 638 623 _________OP___ -1 12.4000 89.7000 TC 64 12.2072 89.6856 4 4 0
1922340N08091 1922 66 NI BB NOT_NAMED 1922-12-08 09:00:00 TS 12.5037 89.6925 main 623 609 _________PP___ -1 12.6000 89.7000 TC 64 12.4075 89.6849 4 4 0
1922340N08091 1922 66 NI BB NOT_NAMED 1922-12-08 12:00:00 TS 12.7020 89.6959 main 609 596 _________OP___ -1 12.8000 89.7000 TC 64 12.6041 89.6918 4 4 0
1922340N08091 1922 66 NI BB NOT_NAMED 1922-12-08 15:00:00 TS 12.9000 89.7000 main 596 583 _________PO___ -1 13.0000 89.7000 TC 64 12.8000 89.7000 4 4 0
1922340N08091 1922 66 NI BB NOT_NAMED 1922-12-08 18:00:00 TS 13.0898 89.6960 main 583 570 _________OP___ -1 13.2000 89.7000 TC 64 12.9797 89.6919 4 4 0
1922340N08091 1922 66 NI BB NOT_NAMED 1922-12-08 21:00:00 TS 13.2700 89.6888 main 570 559 _________PP___ -1 13.3775 89.6925 TC 64 13.1625 89.6851 4 4 0
1922340N08091 1922 66 NI BB NOT_NAMED 1922-12-09 00:00:00 TS 13.4820 89.6929 main 559 548 _________OP___ -1 13.6000 89.7000 TC 64 13.3641 89.6857 4 5 4
1922340N08091 1922 66 NI BB NOT_NAMED 1922-12-09 03:00:00 TS 13.7675 89.7212 main 542 518 _________PO___ -1 13.9350 89.7425 TC 64 13.6000 89.7000 4 6 7
1922340N08091 1922 66 NI BB NOT_NAMED 1922-12-09 06:00:00 TS 14.0986 89.7577 main 518 505 _________OP___ -1 14.3000 89.8000 TC 64 13.8971 89.7154 4 7 6
1922340N08091 1922 66 NI BB NOT_NAMED 1922-12-09 09:00:00 TS 14.4175 89.7914 main 505 493 _________PP___ -1 14.6075 89.8351 TC 64 14.2274 89.7477 4 6 8
1922340N08091 1922 66 NI BB NOT_NAMED 1922-12-09 12:00:00 TS 14.7345 89.8531 main 483 463 _________OP___ -1 14.9000 89.9000 TC 64 14.5690 89.8061 4 7 15
1922340N08091 1922 66 NI BB NOT_NAMED 1922-12-09 15:00:00 TS 15.0537 89.9637 main 461 446 _________PO___ -1 15.2075 90.0275 TC 64 14.9000 89.9000 4 7 22
1922340N08091 1922 66 NI BB NOT_NAMED 1922-12-09 18:00:00 TS 15.3426 90.1135 main 446 419 _________OP___ -1 15.5000 90.2000 TC 64 15.1853 90.0270 4 6 29
1922340N08091 1922 66 NI BB NOT_NAMED 1922-12-09 21:00:00 TS 15.6037 90.2876 main 419 396 _________PP___ -1 15.7500 90.3851 TC 64 15.4574 90.1902 4 6 35
1922340N08091 1922 66 NI BB NOT_NAMED 1922-12-10 00:00:00 TS 15.8629 90.4917 main 395 374 _________OP___ -1 16.0000 90.6000 TC 64 15.7259 90.3833 4 7 38
1922340N08091 1922 66 NI BB NOT_NAMED 1922-12-10 03:00:00 TS 16.1462 90.7213 main 374 354 _________PO___ -1 16.2925 90.8425 TC 64 16.0000 90.6000 4 7 37
1922340N08091 1922 66 NI BB NOT_NAMED 1922-12-10 06:00:00 TS 16.4545 90.9561 main 346 329 _________OP___ -1 16.6000 91.1000 TC 64 16.3089 90.8122 4 8 36
1922340N08091 1922 66 NI BB NOT_NAMED 1922-12-10 09:00:00 TS 16.7648 91.1913 main 332 313 _________PP___ -1 16.9074 91.3351 TC 64 16.6223 91.0476 4 8 38
1922340N08091 1922 66 NI BB NOT_NAMED 1922-12-10 12:00:00 TS 17.0622 91.4546 main 305 284 _________OP___ -1 17.2000 91.6000 TC 64 16.9245 91.3091 4 8 44
1922340N08091 1922 66 NI BB NOT_NAMED 1922-12-10 15:00:00 TS 17.3363 91.7675 main 276 238 _________PO___ -1 17.4725 91.9350 TC 56 17.2000 91.6000 4 8 51
1922340N08091 1922 66 NI BB NOT_NAMED 1922-12-10 18:00:00 TS 17.5500 92.0836 main 230 199 _________OP___ -1 17.7000 92.3000 TC 49 17.4375 91.9213 4 7 58
1922340N08091 1922 66 NI BB NOT_NAMED 1922-12-10 21:00:00 TS 17.7329 92.4222 main 199 161 _________PP___ -1 17.8676 92.6550 TC 41 17.6431 92.2671 4 7 62
1922340N08091 1922 66 NI BB NOT_NAMED 1922-12-11 00:00:00 TS 17.8848 92.7528 main 153 130 _________OP___ -1 18.0000 93.0000 TC 34 17.8272 92.6293 4 6 64
1922340N08091 1922 66 NI BB NOT_NAMED 1922-12-11 03:00:00 NR 18.0000 93.0000 main 130 __________O___ -1 TC 18.0000 93.0000 2 5 64

About IBTrACS Database

This database is a web-friendly format of International Best Track Archive for Climate Stewardship (IBTrACS), a global best track data archive curated by NOAA dating back to 1842.

Updated: 2021-10-08